1NY0 weather

Woodlawn Beach State Park Heliport
Hamburg, New York, United States

Public forecast

Using degrees Fahrenheit for public forecast. Weather courtesy of forecast.io.

Closest aviation weather report (METAR) to Woodlawn Beach State Park Heliport

Closest report is Buffalo Niagara International Airport, 10.5 nm (19.5 km) NNE. Retrieved 2019/10/20 21:54 UTC (35 minutes ago):

KBUF 202154Z 24003KT 10SM FEW180 FEW250 17/06 A2993 RMK AO2 SLP137 T01670061

Closest aviation forecast (TAF) to Woodlawn Beach State Park Heliport

Closest forecast is Buffalo Niagara International Airport, 10.5 nm (19.5 km) NNE. Retrieved 2019/10/20 18:42 UTC (4 hours ago):

TAF KBUF 201739Z 2018/2118 25005KT P6SM SCT200 FM202100 13005KT P6SM SCT250